sensor_id;sensor_type;location;lat;lon;timestamp;P1;durP1;ratioP1;P2;durP2;ratioP2
59571;SDS011;59406;45.602;11.904;2023-02-04T00:00:00;527.78;;;108.07;;
59571;SDS011;59406;45.602;11.904;2023-02-04T00:02:26;452.95;;;98.35;;
59571;SDS011;59406;45.602;11.904;2023-02-04T00:04:52;248.27;;;76.17;;
59571;SDS011;59406;45.602;11.904;2023-02-04T00:07:18;511.20;;;103.50;;
59571;SDS011;59406;45.602;11.904;2023-02-04T00:09:44;158.83;;;58.73;;
59571;SDS011;59406;45.602;11.904;2023-02-04T00:12:14;238.05;;;71.32;;
59571;SDS011;59406;45.602;11.904;2023-02-04T00:14:40;187.43;;;61.05;;
59571;SDS011;59406;45.602;11.904;2023-02-04T00:17:06;146.40;;;58.72;;
59571;SDS011;59406;45.602;11.904;2023-02-04T00:19:34;157.43;;;57.00;;
59571;SDS011;59406;45.602;11.904;2023-02-04T00:22:00;357.17;;;85.82;;
59571;SDS011;59406;45.602;11.904;2023-02-04T00:24:28;263.83;;;76.35;;
59571;SDS011;59406;45.602;11.904;2023-02-04T00:26:55;337.42;;;87.65;;
59571;SDS011;59406;45.602;11.904;2023-02-04T00:29:21;196.65;;;74.25;;
59571;SDS011;59406;45.602;11.904;2023-02-04T00:31:47;306.50;;;89.73;;
59571;SDS011;59406;45.602;11.904;2023-02-04T00:34:13;167.70;;;65.50;;
59571;SDS011;59406;45.602;11.904;2023-02-04T00:36:39;243.80;;;83.18;;
59571;SDS011;59406;45.602;11.904;2023-02-04T00:39:05;196.88;;;74.35;;
59571;SDS011;59406;45.602;11.904;2023-02-04T00:41:31;165.90;;;61.87;;
59571;SDS011;59406;45.602;11.904;2023-02-04T00:43:57;512.90;;;106.00;;
59571;SDS011;59406;45.602;11.904;2023-02-04T00:46:22;714.33;;;126.73;;
59571;SDS011;59406;45.602;11.904;2023-02-04T00:48:48;373.57;;;84.17;;
59571;SDS011;59406;45.602;11.904;2023-02-04T00:51:14;313.00;;;83.35;;
59571;SDS011;59406;45.602;11.904;2023-02-04T00:53:40;590.55;;;111.82;;
59571;SDS011;59406;45.602;11.904;2023-02-04T00:56:06;176.80;;;61.63;;
59571;SDS011;59406;45.602;11.904;2023-02-04T00:58:32;268.50;;;73.75;;
59571;SDS011;59406;45.602;11.904;2023-02-04T01:00:58;593.17;;;108.93;;
59571;SDS011;59406;45.602;11.904;2023-02-04T01:03:24;602.67;;;106.17;;
59571;SDS011;59406;45.602;11.904;2023-02-04T01:05:50;777.85;;;128.27;;
59571;SDS011;59406;45.602;11.904;2023-02-04T01:08:16;445.13;;;91.20;;
59571;SDS011;59406;45.602;11.904;2023-02-04T01:10:41;451.13;;;87.83;;
59571;SDS011;59406;45.602;11.904;2023-02-04T01:13:07;707.35;;;123.35;;
59571;SDS011;59406;45.602;11.904;2023-02-04T01:15:34;414.25;;;79.13;;
59571;SDS011;59406;45.602;11.904;2023-02-04T01:17:59;139.20;;;54.40;;
59571;SDS011;59406;45.602;11.904;2023-02-04T01:20:26;260.27;;;66.85;;
59571;SDS011;59406;45.602;11.904;2023-02-04T01:22:52;154.73;;;53.58;;
59571;SDS011;59406;45.602;11.904;2023-02-04T01:25:18;161.45;;;59.53;;
59571;SDS011;59406;45.602;11.904;2023-02-04T01:27:44;125.50;;;53.77;;
59571;SDS011;59406;45.602;11.904;2023-02-04T01:30:10;271.80;;;69.32;;
59571;SDS011;59406;45.602;11.904;2023-02-04T01:32:38;258.50;;;72.85;;
59571;SDS011;59406;45.602;11.904;2023-02-04T01:35:04;191.95;;;58.80;;
59571;SDS011;59406;45.602;11.904;2023-02-04T01:37:30;336.67;;;81.43;;
59571;SDS011;59406;45.602;11.904;2023-02-04T01:39:56;214.37;;;65.60;;
59571;SDS011;59406;45.602;11.904;2023-02-04T01:42:22;381.63;;;77.00;;
59571;SDS011;59406;45.602;11.904;2023-02-04T01:44:49;335.35;;;80.65;;
59571;SDS011;59406;45.602;11.904;2023-02-04T01:47:16;420.95;;;85.22;;
59571;SDS011;59406;45.602;11.904;2023-02-04T01:49:42;468.67;;;89.67;;
59571;SDS011;59406;45.602;11.904;2023-02-04T01:52:09;468.75;;;92.25;;
59571;SDS011;59406;45.602;11.904;2023-02-04T01:54:36;173.13;;;56.80;;
59571;SDS011;59406;45.602;11.904;2023-02-04T01:57:05;224.75;;;68.25;;
59571;SDS011;59406;45.602;11.904;2023-02-04T01:59:34;503.30;;;96.70;;
59571;SDS011;59406;45.602;11.904;2023-02-04T02:02:00;284.27;;;71.67;;
59571;SDS011;59406;45.602;11.904;2023-02-04T02:04:30;388.17;;;80.40;;
59571;SDS011;59406;45.602;11.904;2023-02-04T02:06:58;364.45;;;81.40;;
59571;SDS011;59406;45.602;11.904;2023-02-04T02:09:28;334.98;;;74.18;;
59571;SDS011;59406;45.602;11.904;2023-02-04T02:11:55;237.73;;;66.10;;
59571;SDS011;59406;45.602;11.904;2023-02-04T02:14:21;267.13;;;68.55;;
59571;SDS011;59406;45.602;11.904;2023-02-04T02:16:47;149.93;;;51.20;;
59571;SDS011;59406;45.602;11.904;2023-02-04T02:19:14;139.83;;;53.27;;
59571;SDS011;59406;45.602;11.904;2023-02-04T02:21:49;243.00;;;68.72;;
59571;SDS011;59406;45.602;11.904;2023-02-04T02:24:35;122.47;;;51.50;;
59571;SDS011;59406;45.602;11.904;2023-02-04T02:27:04;176.00;;;55.38;;
59571;SDS011;59406;45.602;11.904;2023-02-04T02:29:33;127.65;;;52.05;;
59571;SDS011;59406;45.602;11.904;2023-02-04T02:31:59;203.87;;;64.43;;
59571;SDS011;59406;45.602;11.904;2023-02-04T02:34:26;297.75;;;71.43;;
59571;SDS011;59406;45.602;11.904;2023-02-04T02:36:52;279.20;;;66.82;;
59571;SDS011;59406;45.602;11.904;2023-02-04T02:39:19;161.75;;;55.45;;
59571;SDS011;59406;45.602;11.904;2023-02-04T02:41:45;383.15;;;80.72;;
59571;SDS011;59406;45.602;11.904;2023-02-04T02:44:12;312.00;;;72.27;;
59571;SDS011;59406;45.602;11.904;2023-02-04T02:46:39;313.45;;;73.63;;
59571;SDS011;59406;45.602;11.904;2023-02-04T02:49:05;173.23;;;58.17;;
59571;SDS011;59406;45.602;11.904;2023-02-04T02:51:33;383.55;;;79.85;;
59571;SDS011;59406;45.602;11.904;2023-02-04T02:53:59;140.90;;;53.33;;
59571;SDS011;59406;45.602;11.904;2023-02-04T02:56:25;188.10;;;58.42;;
59571;SDS011;59406;45.602;11.904;2023-02-04T02:58:50;235.70;;;61.55;;
59571;SDS011;59406;45.602;11.904;2023-02-04T03:01:17;173.93;;;55.78;;
59571;SDS011;59406;45.602;11.904;2023-02-04T03:03:44;293.37;;;70.67;;
59571;SDS011;59406;45.602;11.904;2023-02-04T03:06:20;216.85;;;59.35;;
59571;SDS011;59406;45.602;11.904;2023-02-04T03:08:49;202.13;;;60.20;;
59571;SDS011;59406;45.602;11.904;2023-02-04T03:11:19;312.25;;;72.60;;
59571;SDS011;59406;45.602;11.904;2023-02-04T03:13:45;263.67;;;65.90;;
59571;SDS011;59406;45.602;11.904;2023-02-04T03:16:11;197.20;;;59.63;;
59571;SDS011;59406;45.602;11.904;2023-02-04T03:18:37;145.23;;;52.40;;
59571;SDS011;59406;45.602;11.904;2023-02-04T03:21:03;295.85;;;68.22;;
59571;SDS011;59406;45.602;11.904;2023-02-04T03:23:34;137.23;;;51.15;;
59571;SDS011;59406;45.602;11.904;2023-02-04T03:26:00;120.77;;;50.67;;
59571;SDS011;59406;45.602;11.904;2023-02-04T03:28:27;116.00;;;45.78;;
59571;SDS011;59406;45.602;11.904;2023-02-04T03:30:55;100.32;;;43.50;;
59571;SDS011;59406;45.602;11.904;2023-02-04T03:33:22;150.85;;;55.53;;
59571;SDS011;59406;45.602;11.904;2023-02-04T03:35:51;157.15;;;54.50;;
59571;SDS011;59406;45.602;11.904;2023-02-04T03:38:17;160.33;;;55.50;;
59571;SDS011;59406;45.602;11.904;2023-02-04T03:40:43;115.65;;;49.28;;
59571;SDS011;59406;45.602;11.904;2023-02-04T03:43:10;159.50;;;55.15;;
59571;SDS011;59406;45.602;11.904;2023-02-04T03:45:36;113.85;;;47.80;;
59571;SDS011;59406;45.602;11.904;2023-02-04T03:48:01;206.53;;;60.77;;
59571;SDS011;59406;45.602;11.904;2023-02-04T03:50:27;117.90;;;47.65;;
59571;SDS011;59406;45.602;11.904;2023-02-04T03:52:53;183.32;;;52.55;;
59571;SDS011;59406;45.602;11.904;2023-02-04T03:55:19;149.93;;;48.00;;
59571;SDS011;59406;45.602;11.904;2023-02-04T03:57:45;255.90;;;60.10;;
59571;SDS011;59406;45.602;11.904;2023-02-04T04:00:12;135.00;;;49.72;;
59571;SDS011;59406;45.602;11.904;2023-02-04T04:02:39;168.05;;;53.00;;
59571;SDS011;59406;45.602;11.904;2023-02-04T04:05:06;137.30;;;48.33;;
59571;SDS011;59406;45.602;11.904;2023-02-04T04:07:32;167.33;;;54.23;;
59571;SDS011;59406;45.602;11.904;2023-02-04T04:09:58;204.77;;;59.08;;
59571;SDS011;59406;45.602;11.904;2023-02-04T04:12:24;198.57;;;56.30;;
59571;SDS011;59406;45.602;11.904;2023-02-04T04:14:50;145.60;;;50.08;;
59571;SDS011;59406;45.602;11.904;2023-02-04T04:17:16;111.73;;;47.70;;
59571;SDS011;59406;45.602;11.904;2023-02-04T04:19:42;150.55;;;54.70;;
59571;SDS011;59406;45.602;11.904;2023-02-04T04:22:09;109.40;;;47.58;;
59571;SDS011;59406;45.602;11.904;2023-02-04T04:24:35;101.95;;;44.53;;
59571;SDS011;59406;45.602;11.904;2023-02-04T04:27:02;160.40;;;51.63;;
59571;SDS011;59406;45.602;11.904;2023-02-04T04:29:28;128.13;;;49.13;;
59571;SDS011;59406;45.602;11.904;2023-02-04T04:31:54;129.27;;;48.53;;
59571;SDS011;59406;45.602;11.904;2023-02-04T04:34:20;162.70;;;50.00;;
59571;SDS011;59406;45.602;11.904;2023-02-04T04:36:46;184.05;;;55.17;;
59571;SDS011;59406;45.602;11.904;2023-02-04T04:39:12;203.02;;;57.13;;
59571;SDS011;59406;45.602;11.904;2023-02-04T04:41:38;100.10;;;42.75;;
59571;SDS011;59406;45.602;11.904;2023-02-04T04:44:03;172.23;;;55.40;;
59571;SDS011;59406;45.602;11.904;2023-02-04T04:46:29;200.20;;;59.25;;
59571;SDS011;59406;45.602;11.904;2023-02-04T04:48:56;166.80;;;56.58;;
59571;SDS011;59406;45.602;11.904;2023-02-04T04:51:21;160.65;;;51.63;;
59571;SDS011;59406;45.602;11.904;2023-02-04T04:53:47;174.47;;;53.37;;
59571;SDS011;59406;45.602;11.904;2023-02-04T04:56:13;151.02;;;50.50;;
59571;SDS011;59406;45.602;11.904;2023-02-04T04:58:39;257.52;;;65.20;;
59571;SDS011;59406;45.602;11.904;2023-02-04T05:01:05;93.33;;;43.10;;
59571;SDS011;59406;45.602;11.904;2023-02-04T05:03:31;328.40;;;67.97;;
59571;SDS011;59406;45.602;11.904;2023-02-04T05:05:57;276.48;;;61.20;;
59571;SDS011;59406;45.602;11.904;2023-02-04T05:08:23;255.25;;;61.60;;
59571;SDS011;59406;45.602;11.904;2023-02-04T05:10:49;140.23;;;48.40;;
59571;SDS011;59406;45.602;11.904;2023-02-04T05:13:15;98.75;;;40.55;;
59571;SDS011;59406;45.602;11.904;2023-02-04T05:15:41;155.00;;;49.25;;
59571;SDS011;59406;45.602;11.904;2023-02-04T05:18:06;171.10;;;54.47;;
59571;SDS011;59406;45.602;11.904;2023-02-04T05:20:32;98.40;;;42.30;;
59571;SDS011;59406;45.602;11.904;2023-02-04T05:22:58;158.90;;;52.17;;
59571;SDS011;59406;45.602;11.904;2023-02-04T05:25:27;211.10;;;59.10;;
59571;SDS011;59406;45.602;11.904;2023-02-04T05:27:53;244.67;;;56.57;;
59571;SDS011;59406;45.602;11.904;2023-02-04T05:30:19;196.45;;;55.70;;
59571;SDS011;59406;45.602;11.904;2023-02-04T05:32:45;177.85;;;52.90;;
59571;SDS011;59406;45.602;11.904;2023-02-04T05:35:11;242.53;;;57.80;;
59571;SDS011;59406;45.602;11.904;2023-02-04T06:58:25;116.40;;;38.83;;
59571;SDS011;59406;45.602;11.904;2023-02-04T07:00:51;241.25;;;53.28;;
59571;SDS011;59406;45.602;11.904;2023-02-04T07:03:17;108.13;;;36.95;;
59571;SDS011;59406;45.602;11.904;2023-02-04T07:05:43;233.77;;;53.03;;
59571;SDS011;59406;45.602;11.904;2023-02-04T07:08:09;276.42;;;56.70;;
59571;SDS011;59406;45.602;11.904;2023-02-04T07:10:35;220.02;;;54.58;;
59571;SDS011;59406;45.602;11.904;2023-02-04T07:13:01;170.37;;;49.53;;
59571;SDS011;59406;45.602;11.904;2023-02-04T07:15:27;120.22;;;45.88;;
59571;SDS011;59406;45.602;11.904;2023-02-04T07:17:53;177.30;;;54.60;;
59571;SDS011;59406;45.602;11.904;2023-02-04T07:20:18;131.27;;;47.80;;
59571;SDS011;59406;45.602;11.904;2023-02-04T07:22:44;129.23;;;51.08;;
59571;SDS011;59406;45.602;11.904;2023-02-04T07:25:10;210.48;;;92.70;;
59571;SDS011;59406;45.602;11.904;2023-02-04T07:27:39;129.83;;;56.53;;
59571;SDS011;59406;45.602;11.904;2023-02-04T07:30:05;123.20;;;50.92;;
59571;SDS011;59406;45.602;11.904;2023-02-04T07:32:31;107.40;;;50.15;;
59571;SDS011;59406;45.602;11.904;2023-02-04T07:34:58;128.07;;;52.97;;
59571;SDS011;59406;45.602;11.904;2023-02-04T07:37:24;118.80;;;56.63;;
59571;SDS011;59406;45.602;11.904;2023-02-04T07:39:50;107.80;;;49.33;;
59571;SDS011;59406;45.602;11.904;2023-02-04T07:42:16;109.10;;;47.17;;
59571;SDS011;59406;45.602;11.904;2023-02-04T07:44:42;100.77;;;46.07;;
59571;SDS011;59406;45.602;11.904;2023-02-04T07:47:07;99.40;;;45.30;;
59571;SDS011;59406;45.602;11.904;2023-02-04T07:49:33;100.13;;;45.85;;
59571;SDS011;59406;45.602;11.904;2023-02-04T07:51:59;90.15;;;43.08;;
59571;SDS011;59406;45.602;11.904;2023-02-04T07:54:25;109.07;;;48.17;;
59571;SDS011;59406;45.602;11.904;2023-02-04T07:56:51;87.70;;;40.67;;
59571;SDS011;59406;45.602;11.904;2023-02-04T07:59:17;98.63;;;46.42;;
59571;SDS011;59406;45.602;11.904;2023-02-04T08:01:43;89.63;;;42.50;;
59571;SDS011;59406;45.602;11.904;2023-02-04T08:04:09;110.65;;;49.88;;
59571;SDS011;59406;45.602;11.904;2023-02-04T08:06:35;101.70;;;47.45;;
59571;SDS011;59406;45.602;11.904;2023-02-04T08:09:01;94.75;;;42.15;;
59571;SDS011;59406;45.602;11.904;2023-02-04T08:11:26;80.57;;;37.17;;
59571;SDS011;59406;45.602;11.904;2023-02-04T08:13:52;130.75;;;56.72;;
59571;SDS011;59406;45.602;11.904;2023-02-04T08:16:18;121.40;;;54.83;;
59571;SDS011;59406;45.602;11.904;2023-02-04T08:18:44;116.90;;;52.25;;
59571;SDS011;59406;45.602;11.904;2023-02-04T08:21:10;108.60;;;51.03;;
59571;SDS011;59406;45.602;11.904;2023-02-04T08:23:36;116.00;;;53.17;;
59571;SDS011;59406;45.602;11.904;2023-02-04T08:26:07;126.68;;;57.50;;
59571;SDS011;59406;45.602;11.904;2023-02-04T08:28:35;122.90;;;57.08;;
59571;SDS011;59406;45.602;11.904;2023-02-04T08:31:03;127.10;;;58.03;;
59571;SDS011;59406;45.602;11.904;2023-02-04T08:33:36;121.65;;;56.00;;
59571;SDS011;59406;45.602;11.904;2023-02-04T08:36:03;125.13;;;56.07;;
59571;SDS011;59406;45.602;11.904;2023-02-04T08:38:30;104.70;;;49.83;;
59571;SDS011;59406;45.602;11.904;2023-02-04T08:40:56;122.13;;;53.10;;
59571;SDS011;59406;45.602;11.904;2023-02-04T08:43:24;124.13;;;56.28;;
59571;SDS011;59406;45.602;11.904;2023-02-04T08:45:50;111.13;;;49.90;;
59571;SDS011;59406;45.602;11.904;2023-02-04T08:48:16;118.05;;;53.17;;
59571;SDS011;59406;45.602;11.904;2023-02-04T08:50:42;128.77;;;57.83;;
59571;SDS011;59406;45.602;11.904;2023-02-04T08:53:08;132.30;;;57.30;;
59571;SDS011;59406;45.602;11.904;2023-02-04T08:55:33;114.53;;;52.85;;
59571;SDS011;59406;45.602;11.904;2023-02-04T08:57:59;98.93;;;45.30;;
59571;SDS011;59406;45.602;11.904;2023-02-04T09:00:27;127.43;;;54.40;;
59571;SDS011;59406;45.602;11.904;2023-02-04T09:02:54;120.47;;;56.33;;
59571;SDS011;59406;45.602;11.904;2023-02-04T09:05:19;119.05;;;54.63;;
59571;SDS011;59406;45.602;11.904;2023-02-04T09:07:45;117.83;;;55.77;;
59571;SDS011;59406;45.602;11.904;2023-02-04T09:10:11;119.35;;;55.03;;
59571;SDS011;59406;45.602;11.904;2023-02-04T09:12:37;116.05;;;56.85;;
59571;SDS011;59406;45.602;11.904;2023-02-04T09:15:03;115.13;;;53.37;;
59571;SDS011;59406;45.602;11.904;2023-02-04T09:17:29;131.82;;;57.83;;
59571;SDS011;59406;45.602;11.904;2023-02-04T09:19:55;114.68;;;57.97;;
59571;SDS011;59406;45.602;11.904;2023-02-04T09:22:21;118.03;;;55.33;;
59571;SDS011;59406;45.602;11.904;2023-02-04T09:24:46;110.65;;;53.38;;
59571;SDS011;59406;45.602;11.904;2023-02-04T09:27:12;121.47;;;57.63;;
59571;SDS011;59406;45.602;11.904;2023-02-04T09:29:38;130.27;;;57.92;;
59571;SDS011;59406;45.602;11.904;2023-02-04T09:32:04;130.88;;;61.30;;
59571;SDS011;59406;45.602;11.904;2023-02-04T09:34:31;118.23;;;57.07;;
59571;SDS011;59406;45.602;11.904;2023-02-04T09:36:58;132.20;;;60.80;;
59571;SDS011;59406;45.602;11.904;2023-02-04T09:39:23;126.68;;;58.17;;
59571;SDS011;59406;45.602;11.904;2023-02-04T09:41:49;110.87;;;54.87;;
59571;SDS011;59406;45.602;11.904;2023-02-04T09:44:19;115.00;;;56.35;;
59571;SDS011;59406;45.602;11.904;2023-02-04T09:46:53;109.45;;;55.92;;
59571;SDS011;59406;45.602;11.904;2023-02-04T09:49:20;114.55;;;57.15;;
59571;SDS011;59406;45.602;11.904;2023-02-04T09:51:47;124.43;;;61.70;;
59571;SDS011;59406;45.602;11.904;2023-02-04T09:54:15;123.20;;;62.97;;
59571;SDS011;59406;45.602;11.904;2023-02-04T09:56:43;129.85;;;67.18;;
59571;SDS011;59406;45.602;11.904;2023-02-04T09:59:16;107.75;;;58.58;;
59571;SDS011;59406;45.602;11.904;2023-02-04T10:01:50;109.90;;;58.05;;
59571;SDS011;59406;45.602;11.904;2023-02-04T10:04:21;121.03;;;63.22;;
59571;SDS011;59406;45.602;11.904;2023-02-04T10:06:48;110.50;;;59.40;;
59571;SDS011;59406;45.602;11.904;2023-02-04T10:09:14;115.57;;;61.35;;
59571;SDS011;59406;45.602;11.904;2023-02-04T10:11:41;113.93;;;60.60;;
59571;SDS011;59406;45.602;11.904;2023-02-04T10:14:12;120.20;;;63.20;;
59571;SDS011;59406;45.602;11.904;2023-02-04T10:16:42;120.32;;;64.03;;
59571;SDS011;59406;45.602;11.904;2023-02-04T10:19:15;131.67;;;65.97;;
59571;SDS011;59406;45.602;11.904;2023-02-04T10:21:41;119.13;;;63.15;;
59571;SDS011;59406;45.602;11.904;2023-02-04T10:24:11;127.35;;;67.25;;
59571;SDS011;59406;45.602;11.904;2023-02-04T10:26:43;127.53;;;69.18;;
59571;SDS011;59406;45.602;11.904;2023-02-04T10:29:13;123.87;;;68.63;;
59571;SDS011;59406;45.602;11.904;2023-02-04T10:31:42;126.57;;;68.18;;
59571;SDS011;59406;45.602;11.904;2023-02-04T10:36:39;123.00;;;67.97;;
59571;SDS011;59406;45.602;11.904;2023-02-04T10:41:47;126.20;;;68.03;;
59571;SDS011;59406;45.602;11.904;2023-02-04T10:44:16;107.25;;;61.70;;
59571;SDS011;59406;45.602;11.904;2023-02-04T10:47:00;111.72;;;63.65;;
59571;SDS011;59406;45.602;11.904;2023-02-04T10:49:39;102.70;;;61.10;;
59571;SDS011;59406;45.602;11.904;2023-02-04T10:52:15;103.28;;;59.17;;
59571;SDS011;59406;45.602;11.904;2023-02-04T10:54:43;105.80;;;56.77;;
59571;SDS011;59406;45.602;11.904;2023-02-04T10:59:41;106.38;;;62.38;;
59571;SDS011;59406;45.602;11.904;2023-02-04T11:04:52;101.60;;;55.73;;
59571;SDS011;59406;45.602;11.904;2023-02-04T11:07:18;117.72;;;64.57;;
59571;SDS011;59406;45.602;11.904;2023-02-04T11:09:46;125.82;;;67.18;;
59571;SDS011;59406;45.602;11.904;2023-02-04T11:15:06;112.65;;;61.80;;
59571;SDS011;59406;45.602;11.904;2023-02-04T11:18:02;120.00;;;62.87;;
59571;SDS011;59406;45.602;11.904;2023-02-04T11:20:30;122.95;;;64.18;;
59571;SDS011;59406;45.602;11.904;2023-02-04T11:23:12;115.82;;;63.15;;
59571;SDS011;59406;45.602;11.904;2023-02-04T11:28:39;111.78;;;57.67;;
59571;SDS011;59406;45.602;11.904;2023-02-04T11:31:24;122.00;;;62.13;;
59571;SDS011;59406;45.602;11.904;2023-02-04T11:36:47;115.97;;;62.95;;
59571;SDS011;59406;45.602;11.904;2023-02-04T11:39:36;109.63;;;60.63;;
59571;SDS011;59406;45.602;11.904;2023-02-04T11:45:15;109.83;;;60.70;;
59571;SDS011;59406;45.602;11.904;2023-02-04T11:47:42;113.68;;;62.97;;
59571;SDS011;59406;45.602;11.904;2023-02-04T11:50:28;115.88;;;62.47;;
59571;SDS011;59406;45.602;11.904;2023-02-04T11:52:58;124.95;;;66.63;;
59571;SDS011;59406;45.602;11.904;2023-02-04T11:55:34;97.38;;;56.40;;
59571;SDS011;59406;45.602;11.904;2023-02-04T11:58:01;114.33;;;61.33;;
59571;SDS011;59406;45.602;11.904;2023-02-04T12:00:28;111.90;;;62.25;;
59571;SDS011;59406;45.602;11.904;2023-02-04T12:02:57;122.80;;;66.88;;
59571;SDS011;59406;45.602;11.904;2023-02-04T12:05:43;112.93;;;62.63;;
59571;SDS011;59406;45.602;11.904;2023-02-04T12:08:24;112.65;;;61.95;;
59571;SDS011;59406;45.602;11.904;2023-02-04T12:11:09;102.30;;;57.47;;
59571;SDS011;59406;45.602;11.904;2023-02-04T12:13:46;105.07;;;60.67;;
59571;SDS011;59406;45.602;11.904;2023-02-04T12:16:14;93.72;;;54.20;;
59571;SDS011;59406;45.602;11.904;2023-02-04T12:18:40;108.25;;;60.33;;
59571;SDS011;59406;45.602;11.904;2023-02-04T12:21:06;104.25;;;57.70;;
59571;SDS011;59406;45.602;11.904;2023-02-04T12:23:32;113.80;;;62.40;;
59571;SDS011;59406;45.602;11.904;2023-02-04T12:25:58;103.82;;;57.10;;
59571;SDS011;59406;45.602;11.904;2023-02-04T12:28:24;113.90;;;61.85;;
59571;SDS011;59406;45.602;11.904;2023-02-04T12:30:52;103.75;;;56.08;;
59571;SDS011;59406;45.602;11.904;2023-02-04T12:33:18;106.25;;;57.08;;
59571;SDS011;59406;45.602;11.904;2023-02-04T12:35:44;105.07;;;56.97;;
59571;SDS011;59406;45.602;11.904;2023-02-04T12:38:10;106.68;;;56.38;;
59571;SDS011;59406;45.602;11.904;2023-02-04T12:40:37;114.97;;;57.58;;
59571;SDS011;59406;45.602;11.904;2023-02-04T12:43:03;103.40;;;57.00;;
59571;SDS011;59406;45.602;11.904;2023-02-04T12:45:30;107.25;;;57.42;;
59571;SDS011;59406;45.602;11.904;2023-02-04T12:47:56;105.00;;;57.20;;
59571;SDS011;59406;45.602;11.904;2023-02-04T12:50:22;97.68;;;53.13;;
59571;SDS011;59406;45.602;11.904;2023-02-04T12:52:49;105.63;;;56.75;;
59571;SDS011;59406;45.602;11.904;2023-02-04T12:55:16;104.63;;;56.25;;
59571;SDS011;59406;45.602;11.904;2023-02-04T12:57:43;105.27;;;57.63;;
59571;SDS011;59406;45.602;11.904;2023-02-04T13:00:09;107.80;;;57.55;;
59571;SDS011;59406;45.602;11.904;2023-02-04T13:02:36;102.90;;;56.78;;
59571;SDS011;59406;45.602;11.904;2023-02-04T13:05:02;100.57;;;52.70;;
59571;SDS011;59406;45.602;11.904;2023-02-04T13:07:28;105.38;;;56.83;;
59571;SDS011;59406;45.602;11.904;2023-02-04T13:09:54;101.93;;;55.97;;
59571;SDS011;59406;45.602;11.904;2023-02-04T13:12:21;95.88;;;53.25;;
59571;SDS011;59406;45.602;11.904;2023-02-04T13:14:47;99.38;;;53.40;;
59571;SDS011;59406;45.602;11.904;2023-02-04T13:17:13;100.95;;;55.42;;
59571;SDS011;59406;45.602;11.904;2023-02-04T13:19:39;100.67;;;54.63;;
59571;SDS011;59406;45.602;11.904;2023-02-04T13:22:05;96.00;;;54.90;;
59571;SDS011;59406;45.602;11.904;2023-02-04T13:24:31;101.18;;;56.55;;
59571;SDS011;59406;45.602;11.904;2023-02-04T13:26:57;104.95;;;58.90;;
59571;SDS011;59406;45.602;11.904;2023-02-04T13:29:23;107.13;;;57.77;;
59571;SDS011;59406;45.602;11.904;2023-02-04T13:31:49;104.25;;;58.13;;
59571;SDS011;59406;45.602;11.904;2023-02-04T13:34:16;105.40;;;56.10;;
59571;SDS011;59406;45.602;11.904;2023-02-04T13:36:42;108.68;;;56.25;;
59571;SDS011;59406;45.602;11.904;2023-02-04T13:39:09;107.05;;;56.75;;
59571;SDS011;59406;45.602;11.904;2023-02-04T13:41:35;112.27;;;55.50;;
59571;SDS011;59406;45.602;11.904;2023-02-04T13:44:02;112.25;;;56.67;;
59571;SDS011;59406;45.602;11.904;2023-02-04T13:46:28;113.15;;;55.72;;
59571;SDS011;59406;45.602;11.904;2023-02-04T13:48:54;115.25;;;57.53;;
59571;SDS011;59406;45.602;11.904;2023-02-04T13:51:20;114.93;;;58.27;;
59571;SDS011;59406;45.602;11.904;2023-02-04T13:53:46;115.47;;;56.00;;
59571;SDS011;59406;45.602;11.904;2023-02-04T13:56:12;112.60;;;53.05;;
59571;SDS011;59406;45.602;11.904;2023-02-04T13:58:38;113.03;;;54.55;;
59571;SDS011;59406;45.602;11.904;2023-02-04T14:01:11;116.57;;;53.72;;
59571;SDS011;59406;45.602;11.904;2023-02-04T14:03:38;107.60;;;52.57;;
59571;SDS011;59406;45.602;11.904;2023-02-04T14:06:04;106.13;;;50.33;;
59571;SDS011;59406;45.602;11.904;2023-02-04T14:08:30;122.15;;;54.30;;
59571;SDS011;59406;45.602;11.904;2023-02-04T14:10:56;113.03;;;52.67;;
59571;SDS011;59406;45.602;11.904;2023-02-04T14:13:22;113.73;;;51.90;;
59571;SDS011;59406;45.602;11.904;2023-02-04T14:15:48;109.70;;;50.45;;
59571;SDS011;59406;45.602;11.904;2023-02-04T14:18:14;107.25;;;52.28;;
59571;SDS011;59406;45.602;11.904;2023-02-04T14:20:42;105.18;;;52.33;;
59571;SDS011;59406;45.602;11.904;2023-02-04T14:23:08;105.47;;;51.63;;
59571;SDS011;59406;45.602;11.904;2023-02-04T14:25:36;110.27;;;51.40;;
59571;SDS011;59406;45.602;11.904;2023-02-04T14:28:02;95.30;;;46.63;;
59571;SDS011;59406;45.602;11.904;2023-02-04T14:30:29;103.25;;;52.50;;
59571;SDS011;59406;45.602;11.904;2023-02-04T14:32:55;114.97;;;53.13;;
59571;SDS011;59406;45.602;11.904;2023-02-04T14:35:22;109.72;;;54.63;;
59571;SDS011;59406;45.602;11.904;2023-02-04T14:37:49;102.37;;;52.40;;
59571;SDS011;59406;45.602;11.904;2023-02-04T14:40:15;99.00;;;49.45;;
59571;SDS011;59406;45.602;11.904;2023-02-04T14:42:42;103.28;;;52.28;;
59571;SDS011;59406;45.602;11.904;2023-02-04T14:45:09;105.40;;;51.78;;
59571;SDS011;59406;45.602;11.904;2023-02-04T14:47:36;101.00;;;50.70;;
59571;SDS011;59406;45.602;11.904;2023-02-04T14:50:07;104.20;;;50.97;;
59571;SDS011;59406;45.602;11.904;2023-02-04T14:52:35;107.50;;;51.45;;
59571;SDS011;59406;45.602;11.904;2023-02-04T14:55:01;112.60;;;55.35;;
59571;SDS011;59406;45.602;11.904;2023-02-04T14:57:28;113.78;;;53.13;;
59571;SDS011;59406;45.602;11.904;2023-02-04T14:59:53;106.20;;;51.93;;
59571;SDS011;59406;45.602;11.904;2023-02-04T15:02:20;111.60;;;54.03;;
59571;SDS011;59406;45.602;11.904;2023-02-04T15:04:47;108.03;;;50.40;;
59571;SDS011;59406;45.602;11.904;2023-02-04T15:07:13;112.47;;;52.13;;
59571;SDS011;59406;45.602;11.904;2023-02-04T15:09:39;110.30;;;52.80;;
59571;SDS011;59406;45.602;11.904;2023-02-04T15:12:08;112.10;;;52.73;;
59571;SDS011;59406;45.602;11.904;2023-02-04T15:14:35;118.68;;;53.65;;
59571;SDS011;59406;45.602;11.904;2023-02-04T15:17:01;103.13;;;47.72;;
59571;SDS011;59406;45.602;11.904;2023-02-04T15:19:27;104.07;;;49.80;;
59571;SDS011;59406;45.602;11.904;2023-02-04T15:21:53;102.03;;;47.97;;
59571;SDS011;59406;45.602;11.904;2023-02-04T15:24:19;94.00;;;45.73;;
59571;SDS011;59406;45.602;11.904;2023-02-04T15:26:47;100.45;;;45.30;;
59571;SDS011;59406;45.602;11.904;2023-02-04T15:29:14;102.35;;;47.38;;
59571;SDS011;59406;45.602;11.904;2023-02-04T15:31:40;97.13;;;44.45;;
59571;SDS011;59406;45.602;11.904;2023-02-04T15:34:06;98.13;;;45.87;;
59571;SDS011;59406;45.602;11.904;2023-02-04T15:36:32;90.97;;;42.15;;
59571;SDS011;59406;45.602;11.904;2023-02-04T15:38:58;77.82;;;37.83;;